createdAt,value
2023-02-26T00:01:14.066Z,100636.72
2023-02-26T00:03:40.593Z,100641.69
2023-02-26T00:06:07.443Z,100642.84
2023-02-26T00:08:33.943Z,100649.00
2023-02-26T00:11:00.425Z,100649.84
2023-02-26T00:13:27.439Z,100655.59
2023-02-26T00:16:02.250Z,100651.88
2023-02-26T00:18:28.668Z,100653.56
2023-02-26T00:20:55.382Z,100666.66
2023-02-26T00:23:21.911Z,100664.19
2023-02-26T00:25:48.216Z,100671.97
2023-02-26T00:28:14.892Z,100671.41
2023-02-26T00:30:41.638Z,100673.63
2023-02-26T00:33:08.290Z,100674.66
2023-02-26T00:35:35.012Z,100680.16
2023-02-26T00:38:20.408Z,100694.50
2023-02-26T00:40:49.153Z,100685.88
2023-02-26T00:43:24.267Z,100695.69
2023-02-26T00:46:12.526Z,100703.28
2023-02-26T00:48:59.661Z,100699.03
2023-02-26T00:51:42.290Z,100706.78
2023-02-26T00:54:17.989Z,100706.59
2023-02-26T00:56:44.352Z,100710.50
2023-02-26T00:59:10.682Z,100711.50
2023-02-26T01:01:37.085Z,100717.22
2023-02-26T01:04:03.937Z,100719.25
2023-02-26T01:06:33.641Z,100717.41
2023-02-26T01:09:07.600Z,100721.88
2023-02-26T01:11:36.012Z,100739.97
2023-02-26T01:14:03.751Z,100733.09
2023-02-26T01:16:34.619Z,100736.94
2023-02-26T01:19:36.386Z,100735.94
2023-02-26T01:22:22.688Z,100730.78
2023-02-26T01:24:59.522Z,100740.22
2023-02-26T01:27:25.981Z,100735.13
2023-02-26T01:29:52.557Z,100742.03
2023-02-26T01:32:30.377Z,100734.91
2023-02-26T01:35:04.787Z,100748.03
2023-02-26T01:37:45.680Z,100746.47
2023-02-26T01:40:32.260Z,100751.69
2023-02-26T01:43:06.854Z,100740.16
2023-02-26T01:45:45.877Z,100743.03
2023-02-26T01:48:22.185Z,100738.78
2023-02-26T01:50:48.573Z,100742.88
2023-02-26T01:53:14.838Z,100745.59
2023-02-26T01:55:44.301Z,100740.88
2023-02-26T01:58:11.362Z,100748.50
2023-02-26T02:00:37.699Z,100748.53
2023-02-26T02:03:04.829Z,100757.16
2023-02-26T02:05:39.488Z,100754.69
2023-02-26T02:08:05.925Z,100760.00
2023-02-26T02:10:32.477Z,100769.06
2023-02-26T02:13:17.077Z,100770.28
2023-02-26T02:15:57.109Z,100772.38
2023-02-26T02:18:43.127Z,100773.81
2023-02-26T02:21:40.181Z,100774.22
2023-02-26T02:24:15.546Z,100776.28
2023-02-26T02:26:56.229Z,100781.38
2023-02-26T02:29:44.148Z,100779.31
2023-02-26T02:32:15.638Z,100785.88
2023-02-26T02:34:49.464Z,100786.94
2023-02-26T02:37:25.907Z,100794.47
2023-02-26T02:40:03.742Z,100794.06
2023-02-26T02:43:02.041Z,100799.59
2023-02-26T02:45:47.397Z,100807.97
2023-02-26T02:48:32.070Z,100807.56
2023-02-26T02:51:06.230Z,100810.44
2023-02-26T02:53:40.927Z,100814.13
2023-02-26T02:56:10.641Z,100814.75
2023-02-26T02:58:46.374Z,100815.78
2023-02-26T03:01:18.324Z,100819.44
2023-02-26T03:03:54.901Z,100816.19
2023-02-26T03:06:21.462Z,100816.41
2023-02-26T03:08:49.487Z,100817.03
2023-02-26T03:11:15.812Z,100824.00
2023-02-26T03:13:42.448Z,100831.13
2023-02-26T03:16:18.037Z,100832.56
2023-02-26T03:19:01.934Z,100829.69
2023-02-26T03:21:42.343Z,100839.75
2023-02-26T03:24:43.877Z,100838.72
2023-02-26T03:27:17.389Z,100843.00
2023-02-26T03:30:06.205Z,100847.53
2023-02-26T03:32:49.251Z,100846.50
2023-02-26T03:35:21.511Z,100845.25
2023-02-26T03:37:50.538Z,100853.84
2023-02-26T03:40:23.801Z,100865.50
2023-02-26T03:43:24.685Z,100862.41
2023-02-26T03:45:56.142Z,100870.63
2023-02-26T03:48:27.430Z,100871.84
2023-02-26T03:51:00.048Z,100876.94
2023-02-26T03:53:31.189Z,100887.97
2023-02-26T03:56:04.443Z,100886.94
2023-02-26T03:58:31.039Z,100894.91
2023-02-26T04:01:03.722Z,100903.75
2023-02-26T04:03:38.318Z,100904.13
2023-02-26T04:06:05.323Z,100903.91
2023-02-26T04:08:32.442Z,100907.41
2023-02-26T04:11:04.422Z,100914.75
2023-02-26T04:13:30.728Z,100913.13
2023-02-26T04:15:57.025Z,100913.94
2023-02-26T04:18:23.347Z,100916.81
2023-02-26T04:20:49.700Z,100920.09
2023-02-26T04:23:16.057Z,100927.88
2023-02-26T04:25:42.512Z,100923.59
2023-02-26T04:28:08.799Z,100931.56
2023-02-26T04:30:35.219Z,100932.38
2023-02-26T04:33:01.904Z,100935.69
2023-02-26T04:35:28.446Z,100942.25
2023-02-26T04:37:54.778Z,100938.97
2023-02-26T04:40:21.089Z,100944.69
2023-02-26T04:42:47.656Z,100945.91
2023-02-26T04:45:14.062Z,100948.00
2023-02-26T04:47:40.372Z,100954.31
2023-02-26T04:50:07.678Z,100959.84
2023-02-26T04:52:34.139Z,100963.97
2023-02-26T04:55:00.433Z,100958.63
2023-02-26T04:57:26.821Z,100962.09
2023-02-26T04:59:53.198Z,100977.25
2023-02-26T05:02:19.585Z,100969.28
2023-02-26T05:04:46.076Z,100976.84
2023-02-26T05:07:12.449Z,100977.47
2023-02-26T05:09:38.756Z,100989.09
2023-02-26T05:12:05.178Z,100986.28
2023-02-26T05:14:31.558Z,100983.22
2023-02-26T05:16:57.862Z,100985.88
2023-02-26T05:19:24.177Z,100992.59
2023-02-26T05:21:50.513Z,100995.44
2023-02-26T05:24:17.072Z,101005.63
2023-02-26T05:26:43.375Z,101007.25
2023-02-26T05:29:09.759Z,101014.63
2023-02-26T05:31:36.909Z,101012.59
2023-02-26T05:34:03.290Z,101016.44
2023-02-26T05:36:29.602Z,101018.66
2023-02-26T05:38:55.907Z,101016.59
2023-02-26T05:41:22.368Z,101023.72
2023-02-26T05:43:48.691Z,101026.34
2023-02-26T05:46:15.161Z,101020.59
2023-02-26T05:48:41.947Z,101030.56
2023-02-26T05:51:09.109Z,101040.63
2023-02-26T05:53:35.732Z,101041.00
2023-02-26T05:56:02.097Z,101044.28
2023-02-26T05:58:28.399Z,101043.03
2023-02-26T06:00:54.709Z,101051.00
2023-02-26T06:03:21.032Z,101055.69
2023-02-26T06:05:47.362Z,101057.72
2023-02-26T06:08:13.696Z,101056.69
2023-02-26T06:10:40.011Z,101058.53
2023-02-26T06:13:06.392Z,101073.25
2023-02-26T06:15:32.852Z,101074.88
2023-02-26T06:17:59.181Z,101078.75
2023-02-26T06:20:25.501Z,101089.50
2023-02-26T06:22:51.847Z,101093.66
2023-02-26T06:25:18.138Z,101098.53
2023-02-26T06:27:44.453Z,101105.13
2023-02-26T06:30:11.432Z,101109.59
2023-02-26T06:32:37.814Z,101113.94
2023-02-26T06:35:05.433Z,101115.56
2023-02-26T06:37:31.841Z,101121.91
2023-02-26T06:39:58.213Z,101126.81
2023-02-26T06:42:24.560Z,101137.47
2023-02-26T06:44:50.886Z,101143.84
2023-02-26T06:47:17.708Z,101144.84
2023-02-26T06:49:44.032Z,101149.34
2023-02-26T06:52:10.414Z,101148.81
2023-02-26T06:54:36.744Z,101153.41
2023-02-26T06:57:03.105Z,101149.84
2023-02-26T06:59:29.413Z,101153.75
2023-02-26T07:01:55.759Z,101158.53
2023-02-26T07:04:22.112Z,101158.53
2023-02-26T07:06:48.609Z,101163.56
2023-02-26T07:09:15.018Z,101166.56
2023-02-26T07:11:41.385Z,101166.00
2023-02-26T07:14:07.699Z,101169.59
2023-02-26T07:16:35.085Z,101177.31
2023-02-26T07:19:01.427Z,101176.38
2023-02-26T07:21:27.907Z,101183.16
2023-02-26T07:23:54.230Z,101182.19
2023-02-26T07:26:20.579Z,101183.06
2023-02-26T07:28:46.991Z,101183.69
2023-02-26T07:31:13.410Z,101189.16
2023-02-26T07:33:39.780Z,101191.13
2023-02-26T07:36:06.643Z,101193.44
2023-02-26T07:38:33.018Z,101203.16
2023-02-26T07:40:59.364Z,101210.75
2023-02-26T07:43:25.669Z,101207.13
2023-02-26T07:45:52.633Z,101208.72
2023-02-26T07:48:19.379Z,101209.94
2023-02-26T07:50:45.901Z,101226.44
2023-02-26T07:53:12.459Z,101222.84
2023-02-26T07:55:38.806Z,101216.44
2023-02-26T07:58:05.135Z,101236.94
2023-02-26T08:00:31.535Z,101232.38
2023-02-26T08:02:57.840Z,101231.97
2023-02-26T08:05:24.127Z,101231.84
2023-02-26T08:07:50.481Z,101238.66
2023-02-26T08:10:16.874Z,101232.47
2023-02-26T08:12:43.182Z,101239.38
2023-02-26T08:15:10.506Z,101236.78
2023-02-26T08:17:36.822Z,101251.88
2023-02-26T08:20:03.319Z,101244.38
2023-02-26T08:22:29.627Z,101261.16
2023-02-26T08:24:55.932Z,101262.44
2023-02-26T08:27:22.270Z,101259.78
2023-02-26T08:29:48.594Z,101274.06
2023-02-26T08:32:15.283Z,101268.84
2023-02-26T08:34:41.643Z,101274.84
2023-02-26T08:37:07.952Z,101280.38
2023-02-26T08:39:34.258Z,101281.00
2023-02-26T08:42:00.562Z,101283.13
2023-02-26T08:44:26.853Z,101290.06
2023-02-26T08:46:53.196Z,101286.00
2023-02-26T08:49:19.581Z,101291.38
2023-02-26T08:51:45.896Z,101301.59
2023-02-26T08:54:12.225Z,101300.09
2023-02-26T08:56:38.589Z,101303.16
2023-02-26T08:59:04.962Z,101306.75
2023-02-26T09:01:31.353Z,101306.97
2023-02-26T09:03:57.746Z,101315.81
2023-02-26T09:06:24.324Z,101323.44
2023-02-26T09:08:50.795Z,101324.22
2023-02-26T09:11:17.100Z,101322.19
2023-02-26T09:13:43.477Z,101319.13
2023-02-26T09:16:10.594Z,101331.66
2023-02-26T09:18:37.299Z,101324.88
2023-02-26T09:21:03.882Z,101331.25
2023-02-26T09:23:30.268Z,101339.44
2023-02-26T09:25:57.656Z,101354.66
2023-02-26T09:28:25.714Z,101350.97
2023-02-26T09:30:54.047Z,101345.22
2023-02-26T09:33:21.481Z,101365.13
2023-02-26T09:35:49.175Z,101353.22
2023-02-26T09:38:15.801Z,101358.56
2023-02-26T09:40:48.598Z,101366.56
2023-02-26T09:43:52.376Z,101366.56
2023-02-26T09:46:38.295Z,101365.13
2023-02-26T09:49:17.936Z,101350.31
2023-02-26T09:51:50.020Z,101372.72
2023-02-26T09:54:25.749Z,101371.84
2023-02-26T09:56:54.594Z,101371.25
2023-02-26T09:59:21.072Z,101379.06
2023-02-26T10:01:56.164Z,101365.09
2023-02-26T10:04:36.371Z,101373.31
2023-02-26T10:07:30.446Z,101375.53
2023-02-26T10:10:28.464Z,101368.16
2023-02-26T10:12:55.626Z,101386.44
2023-02-26T10:15:26.754Z,101382.44
2023-02-26T10:18:09.818Z,101384.78
2023-02-26T10:20:48.528Z,101392.16
2023-02-26T10:23:14.824Z,101393.66
2023-02-26T10:25:46.209Z,101390.69
2023-02-26T10:28:21.432Z,101390.69
2023-02-26T10:30:57.628Z,101396.25
2023-02-26T10:33:39.817Z,101394.97
2023-02-26T10:36:33.899Z,101400.94
2023-02-26T10:39:17.872Z,101412.59
2023-02-26T10:41:45.394Z,101406.47
2023-02-26T10:44:19.893Z,101412.63
2023-02-26T10:47:27.896Z,101421.19
2023-02-26T10:49:58.935Z,101420.28
2023-02-26T10:52:28.269Z,101426.41
2023-02-26T10:55:21.994Z,101429.78
2023-02-26T10:57:56.494Z,101428.38
2023-02-26T11:00:22.807Z,101422.28
2023-02-26T11:02:51.289Z,101430.47
2023-02-26T11:05:24.909Z,101436.94
2023-02-26T11:07:56.101Z,101431.28
2023-02-26T11:10:31.272Z,101430.00
2023-02-26T11:12:58.374Z,101422.88
2023-02-26T11:15:27.261Z,101427.22
2023-02-26T11:17:56.821Z,101430.75
2023-02-26T11:20:30.164Z,101426.28
2023-02-26T11:22:58.573Z,101431.84
2023-02-26T11:25:30.710Z,101438.03
2023-02-26T11:28:04.376Z,101431.41
2023-02-26T11:30:37.212Z,101439.66
2023-02-26T11:33:17.613Z,101440.88
2023-02-26T11:35:45.349Z,101429.09
2023-02-26T11:38:18.405Z,101425.03
2023-02-26T11:40:48.178Z,101433.16
2023-02-26T11:43:20.315Z,101435.97
2023-02-26T11:45:58.010Z,101428.47
2023-02-26T11:48:46.697Z,101434.44
2023-02-26T11:51:15.422Z,101430.81
2023-02-26T11:53:48.707Z,101444.13
2023-02-26T11:56:32.879Z,101431.19
2023-02-26T11:59:07.693Z,101426.53
2023-02-26T12:01:35.933Z,101420.66
2023-02-26T12:04:03.145Z,101429.78
2023-02-26T12:06:30.201Z,101435.47
2023-02-26T12:08:56.703Z,101433.34
2023-02-26T12:11:41.701Z,101436.28
2023-02-26T12:14:38.817Z,101437.41
2023-02-26T12:17:12.205Z,101433.59
2023-02-26T12:19:41.585Z,101434.91
2023-02-26T12:22:38.857Z,101436.97
2023-02-26T12:25:30.970Z,101441.53
2023-02-26T12:28:36.058Z,101441.34
2023-02-26T12:31:40.851Z,101440.28
2023-02-26T12:34:44.705Z,101436.03
2023-02-26T12:37:28.752Z,101443.69
2023-02-26T12:40:03.959Z,101435.97
2023-02-26T12:42:42.464Z,101437.81
2023-02-26T12:45:37.620Z,101441.44
2023-02-26T12:48:15.001Z,101439.69
2023-02-26T12:50:53.482Z,101443.50
2023-02-26T12:53:31.606Z,101452.38
2023-02-26T12:56:23.983Z,101444.25
2023-02-26T12:59:08.794Z,101446.13
2023-02-26T13:02:08.675Z,101445.22
2023-02-26T13:04:59.888Z,101454.19
2023-02-26T13:07:44.870Z,101442.50
2023-02-26T13:10:37.480Z,101439.28
2023-02-26T13:13:42.250Z,101452.56
2023-02-26T13:16:28.882Z,101444.22
2023-02-26T13:19:07.262Z,101442.28
2023-02-26T13:21:39.194Z,101437.59
2023-02-26T13:24:24.691Z,101443.69
2023-02-26T13:26:54.162Z,101427.31
2023-02-26T13:29:32.748Z,101428.16
2023-02-26T13:32:04.138Z,101423.41
2023-02-26T13:34:36.358Z,101428.88
2023-02-26T13:37:05.153Z,101430.81
2023-02-26T13:39:56.460Z,101436.34
2023-02-26T13:42:41.125Z,101435.84
2023-02-26T13:45:36.989Z,101437.81
2023-02-26T13:48:14.911Z,101440.19
2023-02-26T13:50:56.295Z,101436.56
2023-02-26T13:53:46.544Z,101431.84
2023-02-26T13:56:17.651Z,101430.47
2023-02-26T13:58:52.053Z,101431.97
2023-02-26T14:01:49.566Z,101424.47
2023-02-26T14:04:19.041Z,101417.16
2023-02-26T14:06:46.181Z,101418.44
2023-02-26T14:09:21.779Z,101420.88
2023-02-26T14:12:01.473Z,101417.25
2023-02-26T14:14:41.424Z,101422.94
2023-02-26T14:17:08.201Z,101417.25
2023-02-26T14:19:37.299Z,101418.56
2023-02-26T14:22:19.640Z,101425.53
2023-02-26T14:24:56.205Z,101413.25
2023-02-26T14:27:32.532Z,101408.56
2023-02-26T14:30:04.455Z,101421.59
2023-02-26T14:32:33.083Z,101416.06
2023-02-26T14:35:11.516Z,101418.53
2023-02-26T14:37:39.723Z,101423.47
2023-02-26T14:40:21.666Z,101419.28
2023-02-26T14:43:04.600Z,101419.19
2023-02-26T14:45:35.439Z,101434.38
2023-02-26T14:48:05.572Z,101421.19
2023-02-26T14:50:57.113Z,101434.16
2023-02-26T14:53:43.060Z,101432.56
2023-02-26T14:56:42.039Z,101437.63
2023-02-26T14:59:19.055Z,101434.47
2023-02-26T15:02:22.654Z,101437.31
2023-02-26T15:05:04.434Z,101439.88
2023-02-26T15:08:04.849Z,101438.41
2023-02-26T15:10:40.265Z,101444.53
2023-02-26T15:13:21.862Z,101434.72
2023-02-26T15:16:07.764Z,101439.66
2023-02-26T15:18:42.920Z,101440.13
2023-02-26T15:21:32.910Z,101453.50
2023-02-26T15:24:00.089Z,101448.44
2023-02-26T15:26:49.377Z,101443.78
2023-02-26T15:29:16.208Z,101453.72
2023-02-26T15:31:53.662Z,101455.03
2023-02-26T15:34:21.258Z,101456.84
2023-02-26T15:36:53.090Z,101453.09
2023-02-26T15:39:22.513Z,101459.06
2023-02-26T15:41:51.172Z,101458.34
2023-02-26T15:44:22.107Z,101458.66
2023-02-26T15:46:55.021Z,101461.13
2023-02-26T15:49:37.271Z,101461.34
2023-02-26T15:52:06.522Z,101467.13
2023-02-26T15:54:41.818Z,101470.44
2023-02-26T15:57:10.137Z,101470.44
2023-02-26T15:59:42.947Z,101476.56
2023-02-26T16:02:20.848Z,101468.09
2023-02-26T16:04:47.737Z,101478.69
2023-02-26T16:07:14.354Z,101481.38
2023-02-26T16:09:45.423Z,101475.22
2023-02-26T16:12:39.935Z,101484.38
2023-02-26T16:15:22.672Z,101487.78
2023-02-26T16:17:52.570Z,101484.84
2023-02-26T16:20:22.706Z,101482.78
2023-02-26T16:22:53.809Z,101486.50
2023-02-26T16:25:25.810Z,101489.47
2023-02-26T16:28:10.643Z,101485.13
2023-02-26T16:30:39.139Z,101491.75
2023-02-26T16:33:18.234Z,101496.84
2023-02-26T16:35:50.133Z,101492.66
2023-02-26T16:38:20.175Z,101488.91
2023-02-26T16:40:48.641Z,101494.28
2023-02-26T16:43:23.941Z,101503.34
2023-02-26T16:45:55.845Z,101509.81
2023-02-26T16:48:31.452Z,101510.06
2023-02-26T16:51:16.583Z,101514.25
2023-02-26T16:53:42.838Z,101521.88
2023-02-26T16:56:12.259Z,101516.53
2023-02-26T16:58:39.782Z,101521.06
2023-02-26T17:01:13.029Z,101528.66
2023-02-26T17:03:40.488Z,101531.38
2023-02-26T17:06:12.688Z,101532.59
2023-02-26T17:08:47.713Z,101537.47
2023-02-26T17:11:24.536Z,101541.63
2023-02-26T17:14:03.963Z,101551.91
2023-02-26T17:16:30.477Z,101544.13
2023-02-26T17:18:57.049Z,101554.28
2023-02-26T17:21:23.746Z,101554.63
2023-02-26T17:23:50.262Z,101555.50
2023-02-26T17:26:16.696Z,101549.72
2023-02-26T17:28:43.139Z,101555.09
2023-02-26T17:31:09.640Z,101552.19
2023-02-26T17:33:37.963Z,101559.22
2023-02-26T17:36:04.881Z,101557.38
2023-02-26T17:38:31.376Z,101562.56
2023-02-26T17:40:58.080Z,101562.00
2023-02-26T17:43:25.449Z,101565.25
2023-02-26T17:45:52.061Z,101571.91
2023-02-26T17:48:18.779Z,101569.41
2023-02-26T17:50:46.593Z,101575.75
2023-02-26T17:53:14.156Z,101569.00
2023-02-26T17:55:40.676Z,101582.81
2023-02-26T17:58:13.260Z,101582.00
2023-02-26T18:00:43.131Z,101578.69
2023-02-26T18:03:12.674Z,101591.22
2023-02-26T18:05:39.962Z,101588.97
2023-02-26T18:08:07.566Z,101597.44
2023-02-26T18:10:33.933Z,101600.94
2023-02-26T18:13:00.284Z,101600.94
2023-02-26T18:15:26.907Z,101605.84
2023-02-26T18:17:53.252Z,101605.03
2023-02-26T18:20:21.601Z,101605.28
2023-02-26T18:22:49.085Z,101608.56
2023-02-26T18:25:15.485Z,101612.47
2023-02-26T18:27:43.127Z,101613.50
2023-02-26T18:30:21.365Z,101613.09
2023-02-26T18:32:47.792Z,101606.28
2023-02-26T18:35:14.114Z,101608.38
2023-02-26T18:37:40.471Z,101612.06
2023-02-26T18:40:07.662Z,101608.34
2023-02-26T18:42:34.152Z,101615.34
2023-02-26T18:45:00.445Z,101611.03
2023-02-26T18:47:26.745Z,101606.72
2023-02-26T18:49:53.212Z,101611.22
2023-02-26T18:52:19.535Z,101606.72
2023-02-26T18:54:45.863Z,101610.03
2023-02-26T18:57:12.426Z,101617.00
2023-02-26T18:59:38.776Z,101607.53
2023-02-26T19:02:06.477Z,101614.50
2023-02-26T19:04:33.911Z,101615.78
2023-02-26T19:07:00.209Z,101618.03
2023-02-26T19:09:26.505Z,101619.69
2023-02-26T19:11:52.803Z,101622.31
2023-02-26T19:14:19.102Z,101621.50
2023-02-26T19:16:45.446Z,101629.03
2023-02-26T19:19:12.839Z,101626.78
2023-02-26T19:21:39.621Z,101627.34
2023-02-26T19:24:07.904Z,101634.06
2023-02-26T19:26:35.402Z,101637.72
2023-02-26T19:29:02.545Z,101639.78
2023-02-26T19:31:29.336Z,101645.06
2023-02-26T19:33:55.871Z,101642.63
2023-02-26T19:36:22.170Z,101641.97
2023-02-26T19:38:49.579Z,101654.47
2023-02-26T19:41:17.735Z,101655.31
2023-02-26T19:43:44.688Z,101648.09
2023-02-26T19:46:11.002Z,101649.63
2023-02-26T19:48:37.453Z,101646.50
2023-02-26T19:51:04.061Z,101646.28
2023-02-26T19:53:30.391Z,101651.69
2023-02-26T19:55:56.815Z,101655.91
2023-02-26T19:58:23.252Z,101664.31
2023-02-26T20:00:49.540Z,101658.75
2023-02-26T20:03:15.826Z,101656.16
2023-02-26T20:05:43.444Z,101661.88
2023-02-26T20:08:09.740Z,101661.19
2023-02-26T20:10:36.055Z,101660.84
2023-02-26T20:13:02.366Z,101654.31
2023-02-26T20:15:28.758Z,101660.03
2023-02-26T20:17:55.915Z,101668.06
2023-02-26T20:20:22.251Z,101668.00
2023-02-26T20:22:48.553Z,101678.84
2023-02-26T20:25:14.919Z,101680.03
2023-02-26T20:27:42.494Z,101684.34
2023-02-26T20:30:09.438Z,101691.53
2023-02-26T20:32:35.956Z,101688.16
2023-02-26T20:35:03.069Z,101696.28
2023-02-26T20:37:29.378Z,101691.94
2023-02-26T20:39:55.694Z,101700.41
2023-02-26T20:42:22.027Z,101704.84
2023-02-26T20:44:48.326Z,101711.47
2023-02-26T20:47:14.668Z,101708.59
2023-02-26T20:49:40.949Z,101709.88
2023-02-26T20:52:07.421Z,101706.84
2023-02-26T20:54:33.766Z,101712.56
2023-02-26T20:57:00.270Z,101707.16
2023-02-26T20:59:26.689Z,101718.41
2023-02-26T21:01:52.974Z,101718.03
2023-02-26T21:04:19.687Z,101710.47
2023-02-26T21:06:46.001Z,101712.22
2023-02-26T21:09:12.392Z,101717.00
2023-02-26T21:11:39.190Z,101714.97
2023-02-26T21:14:07.052Z,101715.81
2023-02-26T21:16:33.482Z,101718.91
2023-02-26T21:19:00.042Z,101724.63
2023-02-26T21:21:26.780Z,101729.72
2023-02-26T21:23:53.293Z,101726.59
2023-02-26T21:26:23.386Z,101725.19
2023-02-26T21:28:50.174Z,101732.50
2023-02-26T21:31:18.692Z,101725.09
2023-02-26T21:33:45.031Z,101717.66
2023-02-26T21:36:11.954Z,101722.56
2023-02-26T21:38:38.290Z,101720.06
2023-02-26T21:41:05.367Z,101717.94
2023-02-26T21:43:31.656Z,101722.03
2023-02-26T21:45:58.261Z,101724.53
2023-02-26T21:48:24.605Z,101729.47
2023-02-26T21:50:50.922Z,101726.97
2023-02-26T21:53:17.892Z,101724.53
2023-02-26T21:55:44.266Z,101730.84
2023-02-26T21:58:10.612Z,101728.00
2023-02-26T22:00:36.927Z,101734.34
2023-02-26T22:03:03.341Z,101734.31
2023-02-26T22:05:29.675Z,101742.56
2023-02-26T22:07:55.977Z,101741.28
2023-02-26T22:10:22.364Z,101749.44
2023-02-26T22:12:48.683Z,101757.56
2023-02-26T22:15:15.220Z,101755.59
2023-02-26T22:17:41.504Z,101747.97
2023-02-26T22:20:08.582Z,101744.59
2023-02-26T22:22:37.940Z,101747.91
2023-02-26T22:25:06.266Z,101747.47
2023-02-26T22:27:33.048Z,101744.19
2023-02-26T22:29:59.457Z,101750.16
2023-02-26T22:32:25.800Z,101753.47
2023-02-26T22:34:52.130Z,101757.25
2023-02-26T22:37:19.210Z,101757.34
2023-02-26T22:39:45.505Z,101763.88
2023-02-26T22:42:11.804Z,101764.31
2023-02-26T22:44:38.351Z,101766.25
2023-02-26T22:47:04.714Z,101770.69
2023-02-26T22:49:31.054Z,101768.09
2023-02-26T22:51:57.355Z,101773.06
2023-02-26T22:54:23.661Z,101768.66
2023-02-26T22:56:50.023Z,101775.66
2023-02-26T22:59:16.347Z,101777.44
2023-02-26T23:01:43.070Z,101778.56
2023-02-26T23:04:09.658Z,101774.25
2023-02-26T23:06:35.971Z,101781.50
2023-02-26T23:09:03.957Z,101775.81
2023-02-26T23:11:30.267Z,101780.06
2023-02-26T23:13:56.600Z,101791.78
2023-02-26T23:16:23.265Z,101789.56
2023-02-26T23:18:49.629Z,101786.44
2023-02-26T23:21:16.303Z,101794.75
2023-02-26T23:23:42.640Z,101791.63
2023-02-26T23:26:09.131Z,101784.16
2023-02-26T23:28:36.173Z,101797.03
2023-02-26T23:31:02.999Z,101788.69
2023-02-26T23:33:29.402Z,101793.34
2023-02-26T23:35:55.691Z,101802.66
2023-02-26T23:38:22.159Z,101801.25
2023-02-26T23:40:48.649Z,101808.06
2023-02-26T23:43:15.853Z,101805.22
2023-02-26T23:45:42.262Z,101805.97
2023-02-26T23:48:08.595Z,101808.63
2023-02-26T23:50:35.199Z,101817.88
2023-02-26T23:53:01.594Z,101810.81
2023-02-26T23:55:27.908Z,101811.91
2023-02-26T23:57:54.207Z,101810.34
